sensor_id;sensor_type;location;lat;lon;timestamp;pressure;altitude;pressure_sealevel;temperature;humidity
73651;BME280;61944;52.538;6.108;2023-07-29T00:00:19;100592.41;;;18.75;100.00
73651;BME280;61944;52.538;6.108;2023-07-29T00:02:45;100585.28;;;18.87;100.00
73651;BME280;61944;52.538;6.108;2023-07-29T00:05:11;100582.63;;;18.96;100.00
73651;BME280;61944;52.538;6.108;2023-07-29T00:07:36;100574.91;;;18.97;100.00
73651;BME280;61944;52.538;6.108;2023-07-29T00:10:02;100575.44;;;18.92;100.00
73651;BME280;61944;52.538;6.108;2023-07-29T00:12:28;100579.63;;;18.87;100.00
73651;BME280;61944;52.538;6.108;2023-07-29T00:14:54;100570.28;;;18.86;100.00
73651;BME280;61944;52.538;6.108;2023-07-29T00:17:20;100564.25;;;18.68;100.00
73651;BME280;61944;52.538;6.108;2023-07-29T00:19:46;100564.84;;;18.76;100.00
73651;BME280;61944;52.538;6.108;2023-07-29T00:22:11;100562.56;;;18.71;100.00
73651;BME280;61944;52.538;6.108;2023-07-29T00:24:37;100563.00;;;18.69;100.00
73651;BME280;61944;52.538;6.108;2023-07-29T00:27:02;100555.81;;;18.64;100.00
73651;BME280;61944;52.538;6.108;2023-07-29T00:29:28;100557.59;;;18.58;100.00
73651;BME280;61944;52.538;6.108;2023-07-29T00:31:53;100569.03;;;18.71;100.00
73651;BME280;61944;52.538;6.108;2023-07-29T00:34:18;100558.31;;;18.62;100.00
73651;BME280;61944;52.538;6.108;2023-07-29T00:36:45;100556.09;;;18.70;100.00
73651;BME280;61944;52.538;6.108;2023-07-29T00:39:11;100559.28;;;18.72;100.00
73651;BME280;61944;52.538;6.108;2023-07-29T00:41:36;100560.72;;;18.80;100.00
73651;BME280;61944;52.538;6.108;2023-07-29T00:44:02;100561.59;;;18.77;100.00
73651;BME280;61944;52.538;6.108;2023-07-29T00:46:28;100559.66;;;18.74;100.00
73651;BME280;61944;52.538;6.108;2023-07-29T00:48:55;100556.72;;;18.78;100.00
73651;BME280;61944;52.538;6.108;2023-07-29T00:51:21;100539.88;;;18.71;100.00
73651;BME280;61944;52.538;6.108;2023-07-29T00:53:46;100548.56;;;18.47;100.00
73651;BME280;61944;52.538;6.108;2023-07-29T00:56:12;100541.00;;;18.57;100.00
73651;BME280;61944;52.538;6.108;2023-07-29T00:58:38;100546.59;;;18.60;100.00
73651;BME280;61944;52.538;6.108;2023-07-29T01:01:03;100553.00;;;18.64;100.00
73651;BME280;61944;52.538;6.108;2023-07-29T01:03:28;100548.69;;;18.40;100.00
73651;BME280;61944;52.538;6.108;2023-07-29T01:06:08;100545.91;;;18.56;100.00
73651;BME280;61944;52.538;6.108;2023-07-29T01:08:53;100539.94;;;18.51;100.00
73651;BME280;61944;52.538;6.108;2023-07-29T01:14:26;100536.59;;;18.56;100.00
73651;BME280;61944;52.538;6.108;2023-07-29T01:16:57;100536.13;;;18.57;100.00
73651;BME280;61944;52.538;6.108;2023-07-29T01:22:16;100540.66;;;18.55;100.00
73651;BME280;61944;52.538;6.108;2023-07-29T01:24:41;100538.16;;;18.40;100.00
73651;BME280;61944;52.538;6.108;2023-07-29T01:27:07;100536.50;;;18.43;100.00
73651;BME280;61944;52.538;6.108;2023-07-29T01:29:32;100536.41;;;18.46;100.00
73651;BME280;61944;52.538;6.108;2023-07-29T01:32:02;100541.53;;;18.35;100.00
73651;BME280;61944;52.538;6.108;2023-07-29T01:34:34;100542.69;;;18.38;100.00
73651;BME280;61944;52.538;6.108;2023-07-29T01:37:00;100541.88;;;18.37;100.00
73651;BME280;61944;52.538;6.108;2023-07-29T01:39:29;100535.22;;;18.27;100.00
73651;BME280;61944;52.538;6.108;2023-07-29T01:41:58;100530.25;;;18.32;100.00
73651;BME280;61944;52.538;6.108;2023-07-29T01:44:24;100521.41;;;18.29;100.00
73651;BME280;61944;52.538;6.108;2023-07-29T01:46:51;100510.28;;;18.39;100.00
73651;BME280;61944;52.538;6.108;2023-07-29T01:49:16;100509.28;;;18.29;100.00
73651;BME280;61944;52.538;6.108;2023-07-29T01:51:41;100510.53;;;18.28;100.00
73651;BME280;61944;52.538;6.108;2023-07-29T01:54:07;100511.97;;;18.36;100.00
73651;BME280;61944;52.538;6.108;2023-07-29T01:56:32;100511.75;;;18.27;100.00
73651;BME280;61944;52.538;6.108;2023-07-29T01:58:57;100511.09;;;18.03;100.00
73651;BME280;61944;52.538;6.108;2023-07-29T02:01:23;100514.88;;;18.33;100.00
73651;BME280;61944;52.538;6.108;2023-07-29T02:03:48;100517.97;;;18.22;100.00
73651;BME280;61944;52.538;6.108;2023-07-29T02:06:19;100513.63;;;18.34;100.00
73651;BME280;61944;52.538;6.108;2023-07-29T02:08:45;100507.88;;;18.37;100.00
73651;BME280;61944;52.538;6.108;2023-07-29T02:11:10;100511.97;;;18.36;100.00
73651;BME280;61944;52.538;6.108;2023-07-29T02:13:36;100518.50;;;18.33;100.00
73651;BME280;61944;52.538;6.108;2023-07-29T02:16:01;100509.28;;;18.29;100.00
73651;BME280;61944;52.538;6.108;2023-07-29T02:18:26;100510.00;;;18.33;100.00
73651;BME280;61944;52.538;6.108;2023-07-29T02:20:52;100509.13;;;18.36;100.00
73651;BME280;61944;52.538;6.108;2023-07-29T02:23:17;100515.31;;;18.31;100.00
73651;BME280;61944;52.538;6.108;2023-07-29T02:25:43;100511.97;;;18.36;100.00
73651;BME280;61944;52.538;6.108;2023-07-29T02:28:08;100507.00;;;18.24;100.00
73651;BME280;61944;52.538;6.108;2023-07-29T02:30:33;100493.06;;;18.29;100.00
73651;BME280;61944;52.538;6.108;2023-07-29T02:32:59;100487.78;;;18.32;100.00
73651;BME280;61944;52.538;6.108;2023-07-29T02:35:26;100493.34;;;18.35;100.00
73651;BME280;61944;52.538;6.108;2023-07-29T02:37:52;100498.38;;;18.27;100.00
73651;BME280;61944;52.538;6.108;2023-07-29T02:40:17;100497.13;;;18.12;100.00
73651;BME280;61944;52.538;6.108;2023-07-29T02:42:42;100504.84;;;18.12;100.00
73651;BME280;61944;52.538;6.108;2023-07-29T02:45:08;100507.13;;;18.17;100.00
73651;BME280;61944;52.538;6.108;2023-07-29T02:47:36;100508.22;;;18.23;100.00
73651;BME280;61944;52.538;6.108;2023-07-29T02:50:02;100504.59;;;18.22;100.00
73651;BME280;61944;52.538;6.108;2023-07-29T02:52:27;100507.94;;;18.17;100.00
73651;BME280;61944;52.538;6.108;2023-07-29T02:54:53;100500.25;;;18.18;100.00
73651;BME280;61944;52.538;6.108;2023-07-29T02:57:18;100503.75;;;18.05;100.00
73651;BME280;61944;52.538;6.108;2023-07-29T02:59:44;100497.81;;;18.00;100.00
73651;BME280;61944;52.538;6.108;2023-07-29T03:02:09;100498.84;;;17.90;100.00
73651;BME280;61944;52.538;6.108;2023-07-29T03:04:34;100497.00;;;17.99;100.00
73651;BME280;61944;52.538;6.108;2023-07-29T03:07:00;100495.56;;;18.11;100.00
73651;BME280;61944;52.538;6.108;2023-07-29T03:09:26;100491.75;;;18.18;100.00
73651;BME280;61944;52.538;6.108;2023-07-29T03:11:51;100486.34;;;18.07;100.00
73651;BME280;61944;52.538;6.108;2023-07-29T03:14:17;100479.00;;;18.10;100.00
73651;BME280;61944;52.538;6.108;2023-07-29T03:16:43;100486.56;;;17.96;100.00
73651;BME280;61944;52.538;6.108;2023-07-29T03:19:08;100481.88;;;18.06;100.00
73651;BME280;61944;52.538;6.108;2023-07-29T03:21:34;100471.09;;;18.01;100.00
73651;BME280;61944;52.538;6.108;2023-07-29T03:23:59;100472.63;;;17.85;100.00
73651;BME280;61944;52.538;6.108;2023-07-29T03:26:25;100477.00;;;17.90;100.00
73651;BME280;61944;52.538;6.108;2023-07-29T03:28:51;100476.28;;;18.02;100.00
73651;BME280;61944;52.538;6.108;2023-07-29T03:31:16;100477.56;;;18.01;100.00
73651;BME280;61944;52.538;6.108;2023-07-29T03:33:41;100486.03;;;18.01;100.00
73651;BME280;61944;52.538;6.108;2023-07-29T03:36:07;100478.28;;;18.05;100.00
73651;BME280;61944;52.538;6.108;2023-07-29T03:38:33;100473.47;;;18.02;100.00
73651;BME280;61944;52.538;6.108;2023-07-29T03:41:00;100470.13;;;18.07;100.00
73651;BME280;61944;52.538;6.108;2023-07-29T03:43:28;100470.28;;;18.00;100.00
73651;BME280;61944;52.538;6.108;2023-07-29T03:45:53;100469.84;;;18.02;100.00
73651;BME280;61944;52.538;6.108;2023-07-29T03:48:18;100472.84;;;17.95;100.00
73651;BME280;61944;52.538;6.108;2023-07-29T03:50:44;100470.81;;;17.95;100.00
73651;BME280;61944;52.538;6.108;2023-07-29T03:53:09;100467.00;;;18.02;100.00
73651;BME280;61944;52.538;6.108;2023-07-29T03:55:35;100472.25;;;18.03;100.00
73651;BME280;61944;52.538;6.108;2023-07-29T03:58:00;100464.28;;;17.98;100.00
73651;BME280;61944;52.538;6.108;2023-07-29T04:00:26;100470.16;;;17.87;100.00
73651;BME280;61944;52.538;6.108;2023-07-29T04:02:52;100464.44;;;17.91;100.00
73651;BME280;61944;52.538;6.108;2023-07-29T04:05:18;100477.50;;;17.85;100.00
73651;BME280;61944;52.538;6.108;2023-07-29T04:07:43;100465.44;;;17.81;100.00
73651;BME280;61944;52.538;6.108;2023-07-29T04:10:09;100465.03;;;17.82;100.00
73651;BME280;61944;52.538;6.108;2023-07-29T04:12:35;100468.06;;;17.92;100.00
73651;BME280;61944;52.538;6.108;2023-07-29T04:15:00;100469.00;;;17.85;100.00
73651;BME280;61944;52.538;6.108;2023-07-29T04:17:26;100465.94;;;17.96;100.00
73651;BME280;61944;52.538;6.108;2023-07-29T04:19:51;100467.53;;;17.77;100.00
73651;BME280;61944;52.538;6.108;2023-07-29T04:22:17;100472.34;;;17.80;100.00
73651;BME280;61944;52.538;6.108;2023-07-29T04:24:42;100460.88;;;17.87;100.00
73651;BME280;61944;52.538;6.108;2023-07-29T04:27:08;100460.94;;;17.83;100.00
73651;BME280;61944;52.538;6.108;2023-07-29T04:29:34;100462.75;;;17.74;100.00
73651;BME280;61944;52.538;6.108;2023-07-29T04:32:01;100456.91;;;17.84;100.00
73651;BME280;61944;52.538;6.108;2023-07-29T04:34:27;100459.03;;;17.77;100.00
73651;BME280;61944;52.538;6.108;2023-07-29T04:36:52;100458.84;;;17.67;100.00
73651;BME280;61944;52.538;6.108;2023-07-29T04:39:17;100464.88;;;17.70;100.00
73651;BME280;61944;52.538;6.108;2023-07-29T04:41:43;100458.53;;;17.82;100.00
73651;BME280;61944;52.538;6.108;2023-07-29T04:44:08;100452.47;;;17.83;100.00
73651;BME280;61944;52.538;6.108;2023-07-29T04:46:35;100459.41;;;17.79;100.00
73651;BME280;61944;52.538;6.108;2023-07-29T04:49:01;100453.75;;;17.79;100.00
73651;BME280;61944;52.538;6.108;2023-07-29T04:51:28;100457.69;;;17.65;100.00
73651;BME280;61944;52.538;6.108;2023-07-29T04:53:53;100456.69;;;17.75;100.00
73651;BME280;61944;52.538;6.108;2023-07-29T04:56:18;100470.00;;;17.75;100.00
73651;BME280;61944;52.538;6.108;2023-07-29T04:58:44;100464.81;;;17.73;100.00
73651;BME280;61944;52.538;6.108;2023-07-29T05:01:09;100463.97;;;17.73;100.00
73651;BME280;61944;52.538;6.108;2023-07-29T05:03:35;100459.41;;;17.79;100.00
73651;BME280;61944;52.538;6.108;2023-07-29T05:06:00;100455.13;;;17.71;100.00
73651;BME280;61944;52.538;6.108;2023-07-29T05:08:28;100448.84;;;17.83;100.00
73651;BME280;61944;52.538;6.108;2023-07-29T05:10:54;100447.66;;;17.80;100.00
73651;BME280;61944;52.538;6.108;2023-07-29T05:13:20;100463.06;;;17.79;100.00
73651;BME280;61944;52.538;6.108;2023-07-29T05:15:47;100469.94;;;17.78;100.00
73651;BME280;61944;52.538;6.108;2023-07-29T05:18:13;100469.50;;;17.80;100.00
73651;BME280;61944;52.538;6.108;2023-07-29T05:20:38;100483.66;;;17.80;100.00
73651;BME280;61944;52.538;6.108;2023-07-29T05:23:03;100484.41;;;17.84;100.00
73651;BME280;61944;52.538;6.108;2023-07-29T05:25:29;100477.41;;;17.68;100.00
73651;BME280;61944;52.538;6.108;2023-07-29T05:27:54;100486.56;;;17.76;100.00
73651;BME280;61944;52.538;6.108;2023-07-29T05:30:20;100495.00;;;17.80;100.00
73651;BME280;61944;52.538;6.108;2023-07-29T05:32:45;100478.31;;;17.65;100.00
73651;BME280;61944;52.538;6.108;2023-07-29T05:35:10;100484.13;;;17.58;100.00
73651;BME280;61944;52.538;6.108;2023-07-29T05:37:39;100476.72;;;17.44;100.00
73651;BME280;61944;52.538;6.108;2023-07-29T05:40:08;100492.63;;;17.58;100.00
73651;BME280;61944;52.538;6.108;2023-07-29T05:42:34;100500.75;;;17.56;100.00
73651;BME280;61944;52.538;6.108;2023-07-29T05:44:59;100499.66;;;17.50;100.00
73651;BME280;61944;52.538;6.108;2023-07-29T05:47:25;100500.00;;;17.72;100.00
73651;BME280;61944;52.538;6.108;2023-07-29T05:49:51;100495.84;;;17.77;100.00
73651;BME280;61944;52.538;6.108;2023-07-29T05:52:16;100490.94;;;17.61;100.00
73651;BME280;61944;52.538;6.108;2023-07-29T05:54:41;100499.13;;;17.75;100.00
73651;BME280;61944;52.538;6.108;2023-07-29T05:57:09;100495.56;;;17.91;100.00
73651;BME280;61944;52.538;6.108;2023-07-29T05:59:35;100493.16;;;17.90;100.00
73651;BME280;61944;52.538;6.108;2023-07-29T06:02:00;100498.31;;;17.75;100.00
73651;BME280;61944;52.538;6.108;2023-07-29T06:04:25;100500.16;;;17.85;100.00
73651;BME280;61944;52.538;6.108;2023-07-29T06:06:51;100497.53;;;17.74;100.00
73651;BME280;61944;52.538;6.108;2023-07-29T06:09:16;100497.22;;;17.68;100.00
73651;BME280;61944;52.538;6.108;2023-07-29T06:11:42;100500.16;;;17.85;100.00
73651;BME280;61944;52.538;6.108;2023-07-29T06:14:07;100501.16;;;17.75;100.00
73651;BME280;61944;52.538;6.108;2023-07-29T06:16:33;100508.66;;;17.85;100.00
73651;BME280;61944;52.538;6.108;2023-07-29T06:18:58;100503.97;;;17.75;100.00
73651;BME280;61944;52.538;6.108;2023-07-29T06:21:23;100505.72;;;17.68;100.00
73651;BME280;61944;52.538;6.108;2023-07-29T06:23:49;100511.31;;;17.72;100.00
73651;BME280;61944;52.538;6.108;2023-07-29T06:26:14;100509.06;;;17.83;100.00
73651;BME280;61944;52.538;6.108;2023-07-29T06:28:40;100520.69;;;17.89;100.00
73651;BME280;61944;52.538;6.108;2023-07-29T06:31:05;100526.34;;;17.89;100.00
73651;BME280;61944;52.538;6.108;2023-07-29T06:33:30;100527.97;;;17.90;100.00
73651;BME280;61944;52.538;6.108;2023-07-29T06:35:56;100521.06;;;17.91;100.00
73651;BME280;61944;52.538;6.108;2023-07-29T06:38:21;100520.09;;;17.78;100.00
73651;BME280;61944;52.538;6.108;2023-07-29T06:40:50;100518.38;;;17.84;100.00
73651;BME280;61944;52.538;6.108;2023-07-29T06:43:16;100519.84;;;17.92;100.00
73651;BME280;61944;52.538;6.108;2023-07-29T06:45:42;100518.28;;;17.87;100.00
73651;BME280;61944;52.538;6.108;2023-07-29T06:48:07;100515.75;;;17.93;100.00
73651;BME280;61944;52.538;6.108;2023-07-29T06:50:33;100512.97;;;18.10;100.00
73651;BME280;61944;52.538;6.108;2023-07-29T06:52:58;100515.56;;;18.20;100.00
73651;BME280;61944;52.538;6.108;2023-07-29T06:55:24;100504.41;;;18.29;100.00
73651;BME280;61944;52.538;6.108;2023-07-29T06:57:49;100510.34;;;18.35;100.00
73651;BME280;61944;52.538;6.108;2023-07-29T07:00:14;100511.44;;;18.41;100.00
73651;BME280;61944;52.538;6.108;2023-07-29T07:02:40;100515.66;;;18.33;100.00
73651;BME280;61944;52.538;6.108;2023-07-29T07:05:06;100510.25;;;18.22;100.00
73651;BME280;61944;52.538;6.108;2023-07-29T07:07:32;100510.97;;;18.26;100.00
73651;BME280;61944;52.538;6.108;2023-07-29T07:09:57;100511.59;;;18.34;100.00
73651;BME280;61944;52.538;6.108;2023-07-29T07:12:22;100502.56;;;18.39;100.00
73651;BME280;61944;52.538;6.108;2023-07-29T07:14:49;100498.41;;;18.44;100.00
73651;BME280;61944;52.538;6.108;2023-07-29T07:17:14;100500.53;;;18.56;100.00
73651;BME280;61944;52.538;6.108;2023-07-29T07:19:40;100503.31;;;18.60;100.00
73651;BME280;61944;52.538;6.108;2023-07-29T07:22:05;100502.41;;;18.63;100.00
73651;BME280;61944;52.538;6.108;2023-07-29T07:24:30;100508.78;;;18.67;100.00
73651;BME280;61944;52.538;6.108;2023-07-29T07:26:56;100510.94;;;18.79;100.00
73651;BME280;61944;52.538;6.108;2023-07-29T07:29:21;100513.22;;;18.84;100.00
73651;BME280;61944;52.538;6.108;2023-07-29T07:31:54;100513.22;;;18.84;100.00
73651;BME280;61944;52.538;6.108;2023-07-29T07:34:20;100515.00;;;18.95;100.00
73651;BME280;61944;52.538;6.108;2023-07-29T07:36:45;100521.09;;;19.09;100.00
73651;BME280;61944;52.538;6.108;2023-07-29T07:39:11;100518.44;;;19.19;100.00
73651;BME280;61944;52.538;6.108;2023-07-29T07:41:36;100515.75;;;19.28;100.00
73651;BME280;61944;52.538;6.108;2023-07-29T07:44:04;100524.69;;;19.26;100.00
73651;BME280;61944;52.538;6.108;2023-07-29T07:46:30;100525.69;;;19.20;100.00
73651;BME280;61944;52.538;6.108;2023-07-29T07:48:55;100525.31;;;19.63;100.00
73651;BME280;61944;52.538;6.108;2023-07-29T07:51:21;100529.81;;;19.48;100.00
73651;BME280;61944;52.538;6.108;2023-07-29T07:53:46;100543.44;;;19.53;100.00
73651;BME280;61944;52.538;6.108;2023-07-29T07:56:12;100527.44;;;19.59;100.00
73651;BME280;61944;52.538;6.108;2023-07-29T07:58:38;100536.66;;;19.34;100.00
73651;BME280;61944;52.538;6.108;2023-07-29T08:01:07;100538.44;;;19.28;100.00
73651;BME280;61944;52.538;6.108;2023-07-29T08:03:33;100550.41;;;19.36;100.00
73651;BME280;61944;52.538;6.108;2023-07-29T08:05:59;100549.03;;;19.57;100.00
73651;BME280;61944;52.538;6.108;2023-07-29T08:10:51;100538.16;;;19.68;100.00
73651;BME280;61944;52.538;6.108;2023-07-29T08:13:17;100537.16;;;19.75;100.00
73651;BME280;61944;52.538;6.108;2023-07-29T08:15:46;100536.50;;;19.83;100.00
73651;BME280;61944;52.538;6.108;2023-07-29T08:18:11;100534.69;;;19.89;100.00
73651;BME280;61944;52.538;6.108;2023-07-29T08:20:37;100533.25;;;19.68;100.00
73651;BME280;61944;52.538;6.108;2023-07-29T08:23:02;100525.63;;;19.82;100.00
73651;BME280;61944;52.538;6.108;2023-07-29T08:25:28;100525.03;;;19.74;100.00
73651;BME280;61944;52.538;6.108;2023-07-29T08:27:54;100537.00;;;19.95;100.00
73651;BME280;61944;52.538;6.108;2023-07-29T08:30:19;100530.59;;;19.78;100.00
73651;BME280;61944;52.538;6.108;2023-07-29T08:32:45;100526.97;;;19.90;100.00
73651;BME280;61944;52.538;6.108;2023-07-29T08:35:10;100533.41;;;20.20;100.00
73651;BME280;61944;52.538;6.108;2023-07-29T08:37:36;100527.72;;;20.33;100.00
73651;BME280;61944;52.538;6.108;2023-07-29T08:40:01;100532.59;;;20.45;100.00
73651;BME280;61944;52.538;6.108;2023-07-29T08:42:30;100518.97;;;20.40;100.00
73651;BME280;61944;52.538;6.108;2023-07-29T08:44:56;100524.53;;;20.30;100.00
73651;BME280;61944;52.538;6.108;2023-07-29T08:47:26;100532.84;;;20.50;100.00
73651;BME280;61944;52.538;6.108;2023-07-29T08:49:53;100523.28;;;20.70;100.00
73651;BME280;61944;52.538;6.108;2023-07-29T08:52:19;100535.78;;;20.47;100.00
73651;BME280;61944;52.538;6.108;2023-07-29T08:54:46;100535.44;;;20.32;100.00
73651;BME280;61944;52.538;6.108;2023-07-29T08:57:11;100526.25;;;20.41;100.00
73651;BME280;61944;52.538;6.108;2023-07-29T08:59:38;100527.84;;;20.67;100.00
73651;BME280;61944;52.538;6.108;2023-07-29T09:02:04;100534.66;;;20.44;100.00
73651;BME280;61944;52.538;6.108;2023-07-29T09:04:30;100535.78;;;20.21;100.00
73651;BME280;61944;52.538;6.108;2023-07-29T09:06:56;100530.34;;;20.27;100.00
73651;BME280;61944;52.538;6.108;2023-07-29T09:09:23;100542.28;;;20.47;100.00
73651;BME280;61944;52.538;6.108;2023-07-29T09:11:48;100550.06;;;20.60;100.00
73651;BME280;61944;52.538;6.108;2023-07-29T09:14:14;100550.69;;;20.64;100.00
73651;BME280;61944;52.538;6.108;2023-07-29T09:16:40;100545.84;;;20.64;100.00
73651;BME280;61944;52.538;6.108;2023-07-29T09:19:05;100545.84;;;20.64;100.00
73651;BME280;61944;52.538;6.108;2023-07-29T09:21:31;100549.34;;;20.81;100.00
73651;BME280;61944;52.538;6.108;2023-07-29T09:23:57;100543.50;;;20.85;100.00
73651;BME280;61944;52.538;6.108;2023-07-29T09:26:28;100544.84;;;21.06;100.00
73651;BME280;61944;52.538;6.108;2023-07-29T09:28:55;100537.91;;;21.07;100.00
73651;BME280;61944;52.538;6.108;2023-07-29T09:31:22;100549.41;;;21.03;100.00
73651;BME280;61944;52.538;6.108;2023-07-29T09:33:49;100539.63;;;21.04;100.00
73651;BME280;61944;52.538;6.108;2023-07-29T09:36:14;100534.53;;;20.86;100.00
73651;BME280;61944;52.538;6.108;2023-07-29T09:38:40;100530.66;;;20.80;100.00
73651;BME280;61944;52.538;6.108;2023-07-29T09:41:05;100540.50;;;20.66;100.00
73651;BME280;61944;52.538;6.108;2023-07-29T09:43:34;100549.34;;;20.56;100.00
73651;BME280;61944;52.538;6.108;2023-07-29T09:46:01;100544.09;;;20.28;100.00
73651;BME280;61944;52.538;6.108;2023-07-29T09:48:27;100550.22;;;20.27;100.00
73651;BME280;61944;52.538;6.108;2023-07-29T09:50:56;100545.22;;;20.31;100.00
73651;BME280;61944;52.538;6.108;2023-07-29T09:53:22;100553.34;;;20.71;100.00
73651;BME280;61944;52.538;6.108;2023-07-29T09:55:48;100537.19;;;20.81;100.00
73651;BME280;61944;52.538;6.108;2023-07-29T09:58:19;100527.38;;;20.82;100.00
73651;BME280;61944;52.538;6.108;2023-07-29T10:00:45;100534.53;;;20.86;100.00
73651;BME280;61944;52.538;6.108;2023-07-29T10:03:12;100538.41;;;20.80;100.00
73651;BME280;61944;52.538;6.108;2023-07-29T10:05:39;100537.84;;;20.72;100.00
73651;BME280;61944;52.538;6.108;2023-07-29T10:08:06;100533.19;;;20.65;100.00
73651;BME280;61944;52.538;6.108;2023-07-29T10:10:32;100541.03;;;20.74;100.00
73651;BME280;61944;52.538;6.108;2023-07-29T10:12:59;100544.88;;;20.80;100.00
73651;BME280;61944;52.538;6.108;2023-07-29T10:15:25;100530.44;;;20.87;100.00
73651;BME280;61944;52.538;6.108;2023-07-29T10:17:51;100538.53;;;20.76;100.00
73651;BME280;61944;52.538;6.108;2023-07-29T10:20:17;100552.19;;;20.68;100.00
73651;BME280;61944;52.538;6.108;2023-07-29T10:22:44;100551.13;;;21.01;100.00
73651;BME280;61944;52.538;6.108;2023-07-29T10:28:06;100543.63;;;21.42;100.00
73651;BME280;61944;52.538;6.108;2023-07-29T10:30:32;100543.06;;;21.34;100.00
73651;BME280;61944;52.538;6.108;2023-07-29T10:33:01;100540.88;;;21.38;100.00
73651;BME280;61944;52.538;6.108;2023-07-29T10:35:27;100542.72;;;21.32;100.00
73651;BME280;61944;52.538;6.108;2023-07-29T10:37:53;100544.34;;;21.20;100.00
73651;BME280;61944;52.538;6.108;2023-07-29T10:40:19;100542.06;;;21.28;100.00
73651;BME280;61944;52.538;6.108;2023-07-29T10:43:02;100548.13;;;21.17;100.00
73651;BME280;61944;52.538;6.108;2023-07-29T10:45:36;100556.91;;;21.10;100.00
73651;BME280;61944;52.538;6.108;2023-07-29T10:48:07;100552.16;;;21.42;100.00
73651;BME280;61944;52.538;6.108;2023-07-29T10:50:35;100551.16;;;21.36;100.00
73651;BME280;61944;52.538;6.108;2023-07-29T10:53:00;100549.97;;;21.11;100.00
73651;BME280;61944;52.538;6.108;2023-07-29T10:55:32;100541.81;;;20.87;100.00
73651;BME280;61944;52.538;6.108;2023-07-29T10:58:14;100547.50;;;21.00;100.00
73651;BME280;61944;52.538;6.108;2023-07-29T11:00:43;100553.91;;;20.79;100.00
73651;BME280;61944;52.538;6.108;2023-07-29T11:03:09;100551.84;;;20.79;100.00
73651;BME280;61944;52.538;6.108;2023-07-29T11:05:49;100552.38;;;20.87;100.00
73651;BME280;61944;52.538;6.108;2023-07-29T11:08:36;100545.56;;;21.45;100.00
73651;BME280;61944;52.538;6.108;2023-07-29T11:11:05;100540.53;;;21.49;100.00
73651;BME280;61944;52.538;6.108;2023-07-29T11:13:33;100555.09;;;21.95;100.00
73651;BME280;61944;52.538;6.108;2023-07-29T11:15:59;100544.97;;;21.72;100.00
73651;BME280;61944;52.538;6.108;2023-07-29T11:18:32;100537.72;;;22.02;100.00
73651;BME280;61944;52.538;6.108;2023-07-29T11:20:59;100554.16;;;21.98;100.00
73651;BME280;61944;52.538;6.108;2023-07-29T11:23:35;100536.94;;;21.80;100.00
73651;BME280;61944;52.538;6.108;2023-07-29T11:26:02;100555.19;;;22.13;100.00
73651;BME280;61944;52.538;6.108;2023-07-29T11:28:28;100552.53;;;22.41;100.00
73651;BME280;61944;52.538;6.108;2023-07-29T11:30:55;100549.13;;;22.02;99.96
73651;BME280;61944;52.538;6.108;2023-07-29T11:33:23;100545.91;;;21.91;100.00
73651;BME280;61944;52.538;6.108;2023-07-29T11:35:49;100543.53;;;22.21;100.00
73651;BME280;61944;52.538;6.108;2023-07-29T11:38:16;100542.22;;;22.12;100.00
73651;BME280;61944;52.538;6.108;2023-07-29T11:40:42;100540.19;;;21.91;100.00
73651;BME280;61944;52.538;6.108;2023-07-29T11:43:07;100550.28;;;21.83;100.00
73651;BME280;61944;52.538;6.108;2023-07-29T11:45:33;100547.16;;;21.90;100.00
73651;BME280;61944;52.538;6.108;2023-07-29T11:48:00;100545.56;;;21.89;100.00
73651;BME280;61944;52.538;6.108;2023-07-29T11:50:26;100543.91;;;22.23;97.87
73651;BME280;61944;52.538;6.108;2023-07-29T11:52:52;100541.06;;;22.72;94.32
73651;BME280;61944;52.538;6.108;2023-07-29T11:55:17;100546.19;;;22.37;98.01
73651;BME280;61944;52.538;6.108;2023-07-29T11:57:44;100542.34;;;22.71;94.08
73651;BME280;61944;52.538;6.108;2023-07-29T12:00:10;100539.50;;;22.31;96.74
73651;BME280;61944;52.538;6.108;2023-07-29T12:02:39;100544.94;;;22.16;99.06
73651;BME280;61944;52.538;6.108;2023-07-29T12:05:05;100546.94;;;22.06;99.88
73651;BME280;61944;52.538;6.108;2023-07-29T12:07:31;100557.69;;;22.02;98.77
73651;BME280;61944;52.538;6.108;2023-07-29T12:09:58;100557.44;;;21.65;99.66
73651;BME280;61944;52.538;6.108;2023-07-29T12:12:24;100563.47;;;21.67;99.09
73651;BME280;61944;52.538;6.108;2023-07-29T12:14:49;100551.53;;;21.82;100.00
73651;BME280;61944;52.538;6.108;2023-07-29T12:17:15;100556.22;;;21.98;100.00
73651;BME280;61944;52.538;6.108;2023-07-29T12:19:41;100548.88;;;22.09;95.55
73651;BME280;61944;52.538;6.108;2023-07-29T12:22:09;100552.31;;;22.04;92.16
73651;BME280;61944;52.538;6.108;2023-07-29T12:24:37;100547.41;;;22.05;92.17
73651;BME280;61944;52.538;6.108;2023-07-29T12:27:02;100562.72;;;21.98;95.81
73651;BME280;61944;52.538;6.108;2023-07-29T12:29:28;100563.13;;;21.87;90.88
73651;BME280;61944;52.538;6.108;2023-07-29T12:32:01;100572.75;;;21.81;92.44
73651;BME280;61944;52.538;6.108;2023-07-29T12:34:28;100555.16;;;21.60;96.46
73651;BME280;61944;52.538;6.108;2023-07-29T12:36:55;100565.44;;;21.80;94.88
73651;BME280;61944;52.538;6.108;2023-07-29T12:39:23;100550.16;;;21.86;95.51
73651;BME280;61944;52.538;6.108;2023-07-29T12:41:49;100568.75;;;21.78;95.69
73651;BME280;61944;52.538;6.108;2023-07-29T12:44:15;100571.06;;;21.70;96.43
73651;BME280;61944;52.538;6.108;2023-07-29T12:46:41;100565.91;;;22.00;98.21